Time;durP1;ratioP1;P1;durP2;ratioP2;P2;SDS_P1;SDS_P2;PMS_P1;PMS_P2;Temp;Humidity;BMP_temperature;BMP_pressure;BME280_temperature;BME280_humidity;BME280_pressure;Samples;Min_cycle;Max_cycle;Signal;HPM_P1;HPM_P2
2023/07/13 00:01:30;;;;;;;3.58;0.50;;;;;;;;;;5115004;28;20075;-81
2023/07/13 00:03:57;;;;;;;4.43;0.63;;;;;;;;;;5113875;28;20043;-80
2023/07/13 00:06:24;;;;;;;5.25;0.50;;;;;;;;;;5113695;28;20050;-81
2023/07/13 00:08:50;;;;;;;5.63;0.70;;;;;;;;;;5113391;28;20094;-81
2023/07/13 00:11:17;;;;;;;2.97;0.50;;;;;;;;;;5096705;28;20055;-81
2023/07/13 00:13:43;;;;;;;4.90;0.50;;;;;;;;;;5113458;28;20048;-81
2023/07/13 00:16:10;;;;;;;5.55;0.50;;;;;;;;;;5113308;28;20047;-81
2023/07/13 00:18:36;;;;;;;6.85;0.75;;;;;;;;;;5114560;28;20601;-81
2023/07/13 00:21:05;;;;;;;4.97;0.52;;;;;;;;;;5113463;28;20047;-80
2023/07/13 00:23:33;;;;;;;5.18;0.60;;;;;;;;;;5113699;28;20122;-80
2023/07/13 00:26:00;;;;;;;4.47;0.60;;;;;;;;;;5112497;28;20564;-81
2023/07/13 00:28:26;;;;;;;5.97;0.70;;;;;;;;;;5113290;28;20048;-80
2023/07/13 00:30:52;;;;;;;8.77;0.70;;;;;;;;;;5113292;28;20044;-80
2023/07/13 00:33:18;;;;;;;4.05;0.60;;;;;;;;;;5096472;28;20048;-80
2023/07/13 00:35:45;;;;;;;4.25;0.50;;;;;;;;;;5113115;28;20050;-80
2023/07/13 00:38:11;;;;;;;3.45;0.45;;;;;;;;;;5113161;28;20040;-80
2023/07/13 00:40:37;;;;;;;3.90;0.70;;;;;;;;;;5113187;28;20043;-81
2023/07/13 00:43:03;;;;;;;5.28;0.60;;;;;;;;;;5112786;28;20520;-81
2023/07/13 00:45:30;;;;;;;4.95;0.80;;;;;;;;;;5113038;28;20121;-81
2023/07/13 00:47:57;;;;;;;6.28;0.50;;;;;;;;;;5112871;28;20130;-80
2023/07/13 00:50:24;;;;;;;3.78;0.90;;;;;;;;;;5113287;28;20047;-81
2023/07/13 00:52:53;;;;;;;5.60;0.93;;;;;;;;;;5113077;28;20503;-80
2023/07/13 00:55:19;;;;;;;6.18;0.65;;;;;;;;;;5114421;28;20051;-80
2023/07/13 00:57:45;;;;;;;3.40;0.50;;;;;;;;;;5112379;28;20554;-81
2023/07/13 01:00:12;;;;;;;6.60;0.82;;;;;;;;;;5113077;28;20389;-80
2023/07/13 01:02:39;;;;;;;6.03;0.57;;;;;;;;;;5096182;28;20043;-80
2023/07/13 01:05:13;;;;;;;4.65;0.55;;;;;;;;;;5113869;28;20055;-81
2023/07/13 01:07:41;;;;;;;4.05;0.55;;;;;;;;;;5095429;28;20039;-81
2023/07/13 01:10:07;;;;;;;7.05;0.82;;;;;;;;;;5113390;28;20082;-81
2023/07/13 01:12:34;;;;;;;5.70;0.55;;;;;;;;;;5112589;28;20077;-81
2023/07/13 01:15:01;;;;;;;6.97;0.68;;;;;;;;;;5112933;28;20112;-81
2023/07/13 01:17:28;;;;;;;4.15;0.70;;;;;;;;;;5112719;28;20099;-80
2023/07/13 01:19:55;;;;;;;6.68;0.77;;;;;;;;;;5114143;28;20048;-81
2023/07/13 01:22:26;;;;;;;7.47;1.70;;;;;;;;;;5096169;28;20122;-80
2023/07/13 01:24:53;;;;;;;6.85;1.20;;;;;;;;;;5112376;28;20055;-81
2023/07/13 01:27:24;;;;;;;7.45;0.60;;;;;;;;;;5099432;28;20074;-81
2023/07/13 01:29:51;;;;;;;6.28;0.70;;;;;;;;;;5099949;28;20055;-80
2023/07/13 01:32:23;;;;;;;8.20;1.17;;;;;;;;;;5117871;28;20473;-80
2023/07/13 01:34:51;;;;;;;5.40;0.60;;;;;;;;;;5099732;28;20120;-81
2023/07/13 01:37:17;;;;;;;5.57;0.77;;;;;;;;;;5116730;28;20079;-81
2023/07/13 01:39:43;;;;;;;7.68;0.82;;;;;;;;;;5116483;28;20051;-81
2023/07/13 01:42:09;;;;;;;8.07;0.60;;;;;;;;;;5099152;28;20122;-81
2023/07/13 01:44:35;;;;;;;7.25;0.98;;;;;;;;;;5116260;28;20049;-80
2023/07/13 01:47:02;;;;;;;6.38;0.80;;;;;;;;;;5116511;28;20046;-80
2023/07/13 01:49:28;;;;;;;4.03;0.88;;;;;;;;;;5116434;28;20374;-81
2023/07/13 01:51:54;;;;;;;5.80;0.90;;;;;;;;;;5116521;28;20090;-80
2023/07/13 01:54:20;;;;;;;6.35;0.95;;;;;;;;;;5099320;28;20051;-80
2023/07/13 01:56:46;;;;;;;6.95;0.90;;;;;;;;;;5099158;28;20047;-80
2023/07/13 01:59:12;;;;;;;5.65;0.65;;;;;;;;;;5116933;28;20051;-80
2023/07/13 02:01:38;;;;;;;5.05;0.77;;;;;;;;;;5117467;28;20065;-80
2023/07/13 02:04:04;;;;;;;6.82;0.65;;;;;;;;;;5116422;28;20396;-80
2023/07/13 02:06:30;;;;;;;4.93;0.70;;;;;;;;;;5117408;28;20057;-81
2023/07/13 02:08:56;;;;;;;5.93;0.70;;;;;;;;;;5098771;28;20101;-80
2023/07/13 02:11:22;;;;;;;5.55;1.00;;;;;;;;;;5116282;28;20047;-81
2023/07/13 02:13:49;;;;;;;5.00;0.90;;;;;;;;;;5099030;28;20043;-81
2023/07/13 02:16:15;;;;;;;6.28;0.98;;;;;;;;;;5115838;28;20055;-80
2023/07/13 02:18:41;;;;;;;6.40;0.98;;;;;;;;;;5116162;28;20443;-80
2023/07/13 02:21:08;;;;;;;5.78;0.85;;;;;;;;;;5117535;28;20075;-80
2023/07/13 02:23:34;;;;;;;8.10;1.02;;;;;;;;;;5115623;28;20423;-80
2023/07/13 02:26:02;;;;;;;7.65;1.40;;;;;;;;;;5115435;28;20036;-81
2023/07/13 02:28:28;;;;;;;6.45;1.00;;;;;;;;;;5098802;28;20091;-81
2023/07/13 02:30:54;;;;;;;7.65;1.10;;;;;;;;;;5115515;28;20039;-80
2023/07/13 02:33:20;;;;;;;8.65;1.15;;;;;;;;;;5098848;28;20051;-81
2023/07/13 02:35:46;;;;;;;9.43;1.40;;;;;;;;;;5115671;28;20488;-80
2023/07/13 02:38:12;;;;;;;7.07;0.80;;;;;;;;;;5080877;28;20054;-81
2023/07/13 02:40:38;;;;;;;6.07;1.05;;;;;;;;;;5098368;28;20047;-80
2023/07/13 02:43:04;;;;;;;8.30;1.20;;;;;;;;;;5098694;28;20036;-80
2023/07/13 02:45:30;;;;;;;6.97;1.00;;;;;;;;;;5115515;28;20047;-80
2023/07/13 02:47:57;;;;;;;7.93;0.90;;;;;;;;;;5115355;28;20046;-80
2023/07/13 02:50:23;;;;;;;6.55;0.90;;;;;;;;;;5116187;28;20492;-80
2023/07/13 02:52:49;;;;;;;9.05;0.90;;;;;;;;;;5115317;28;20047;-80
2023/07/13 02:55:15;;;;;;;7.07;0.90;;;;;;;;;;5098205;28;20047;-80
2023/07/13 02:57:41;;;;;;;7.80;1.23;;;;;;;;;;5114613;28;20097;-80
2023/07/13 03:00:07;;;;;;;6.80;1.27;;;;;;;;;;5115138;28;20051;-80
2023/07/13 03:02:34;;;;;;;9.65;1.60;;;;;;;;;;5115160;28;20044;-80
2023/07/13 03:05:00;;;;;;;8.52;1.38;;;;;;;;;;5115070;28;20051;-81
2023/07/13 03:07:26;;;;;;;5.70;0.93;;;;;;;;;;5113771;28;20437;-79
2023/07/13 03:09:56;;;;;;;7.20;1.10;;;;;;;;;;5115700;28;20140;-81
2023/07/13 03:12:23;;;;;;;6.45;0.95;;;;;;;;;;5114671;28;20050;-80
2023/07/13 03:14:49;;;;;;;6.15;0.93;;;;;;;;;;5115867;28;20399;-80
2023/07/13 03:17:15;;;;;;;5.32;1.00;;;;;;;;;;5114712;28;20194;-81
2023/07/13 03:19:42;;;;;;;4.80;0.95;;;;;;;;;;5114709;28;20126;-80
2023/07/13 03:22:08;;;;;;;5.13;0.90;;;;;;;;;;5114463;28;20036;-80
2023/07/13 03:24:34;;;;;;;9.00;1.10;;;;;;;;;;5114389;28;20048;-80
2023/07/13 03:27:04;;;;;;;7.72;1.88;;;;;;;;;;5097063;28;20397;-80
2023/07/13 03:29:30;;;;;;;3.90;0.80;;;;;;;;;;5116081;28;20051;-80
2023/07/13 03:31:56;;;;;;;6.07;1.00;;;;;;;;;;5114274;28;20457;-80
2023/07/13 03:34:23;;;;;;;4.60;0.85;;;;;;;;;;5115421;28;20050;-80
2023/07/13 03:36:49;;;;;;;10.95;1.40;;;;;;;;;;5114361;28;20389;-80
2023/07/13 03:39:15;;;;;;;6.05;1.15;;;;;;;;;;5114306;28;20043;-80
2023/07/13 03:41:41;;;;;;;9.90;1.55;;;;;;;;;;5080423;28;20046;-80
2023/07/13 03:44:07;;;;;;;6.57;1.10;;;;;;;;;;5097516;28;20051;-80
2023/07/13 03:46:33;;;;;;;6.45;1.00;;;;;;;;;;5114106;28;20059;-80
2023/07/13 03:48:59;;;;;;;3.80;0.98;;;;;;;;;;5096720;28;20055;-79
2023/07/13 03:51:26;;;;;;;6.03;1.27;;;;;;;;;;5114046;28;20445;-80
2023/07/13 03:53:52;;;;;;;6.82;1.20;;;;;;;;;;5080147;28;20059;-80
2023/07/13 03:56:19;;;;;;;6.43;1.38;;;;;;;;;;5114482;28;20066;-80
2023/07/13 03:58:46;;;;;;;5.22;1.15;;;;;;;;;;5113662;28;20611;-79
2023/07/13 04:01:13;;;;;;;7.82;1.15;;;;;;;;;;5114864;28;20126;-80
2023/07/13 04:03:40;;;;;;;6.72;1.10;;;;;;;;;;5114909;28;20050;-80
2023/07/13 04:06:09;;;;;;;6.43;0.88;;;;;;;;;;5096552;28;20047;-80
2023/07/13 04:08:36;;;;;;;3.30;0.95;;;;;;;;;;5113492;28;20054;-80
2023/07/13 04:11:03;;;;;;;5.97;1.13;;;;;;;;;;5115106;27;20052;-80
2023/07/13 04:13:29;;;;;;;4.05;1.23;;;;;;;;;;5113652;28;20430;-81
2023/07/13 04:15:55;;;;;;;6.25;1.00;;;;;;;;;;5113695;28;20089;-80
2023/07/13 04:18:22;;;;;;;3.88;0.63;;;;;;;;;;5096602;28;20051;-80
2023/07/13 04:20:49;;;;;;;7.88;0.82;;;;;;;;;;5113944;28;20074;-80
2023/07/13 04:23:15;;;;;;;5.82;1.23;;;;;;;;;;5113440;28;20043;-80
2023/07/13 04:25:49;;;;;;;5.57;1.08;;;;;;;;;;5114474;28;20058;-80
2023/07/13 04:28:15;;;;;;;4.53;1.02;;;;;;;;;;5096542;28;20103;-80
2023/07/13 04:30:41;;;;;;;7.55;1.30;;;;;;;;;;5113123;28;20044;-80
2023/07/13 04:33:08;;;;;;;7.55;1.20;;;;;;;;;;5114394;28;20393;-80
2023/07/13 04:35:34;;;;;;;5.55;1.23;;;;;;;;;;5113225;28;20039;-81
2023/07/13 04:38:01;;;;;;;7.68;1.20;;;;;;;;;;5096450;28;20085;-81
2023/07/13 04:40:27;;;;;;;6.72;0.93;;;;;;;;;;5112391;28;20052;-81
2023/07/13 04:42:54;;;;;;;8.43;1.50;;;;;;;;;;5113721;28;20445;-81
2023/07/13 04:45:20;;;;;;;7.63;1.42;;;;;;;;;;5113290;28;20397;-80
2023/07/13 04:47:46;;;;;;;6.25;1.50;;;;;;;;;;5114161;28;20092;-81
2023/07/13 04:50:18;;;;;;;5.38;1.20;;;;;;;;;;5112927;28;20047;-81
2023/07/13 04:52:44;;;;;;;4.88;1.35;;;;;;;;;;5112716;28;20559;-81
2023/07/13 04:55:10;;;;;;;8.38;1.67;;;;;;;;;;5112898;28;20106;-82
2023/07/13 04:57:37;;;;;;;7.93;1.60;;;;;;;;;;5112397;28;20047;-81
2023/07/13 05:00:06;;;;;;;4.40;1.13;;;;;;;;;;5095895;28;20466;-82
2023/07/13 05:02:33;;;;;;;7.28;1.77;;;;;;;;;;5112638;28;20043;-80
2023/07/13 05:04:59;;;;;;;5.22;1.27;;;;;;;;;;5113006;28;20226;-81
2023/07/13 05:07:26;;;;;;;5.57;1.77;;;;;;;;;;5113735;28;20055;-81
2023/07/13 05:09:52;;;;;;;5.00;1.33;;;;;;;;;;5095258;28;20134;-81
2023/07/13 05:12:19;;;;;;;4.72;1.20;;;;;;;;;;5095775;28;20106;-81
2023/07/13 05:14:45;;;;;;;6.68;1.25;;;;;;;;;;5095694;28;20054;-81
2023/07/13 05:17:11;;;;;;;9.25;1.75;;;;;;;;;;5112640;28;20055;-81
2023/07/13 05:19:37;;;;;;;7.57;1.48;;;;;;;;;;5112937;28;20048;-81
2023/07/13 05:22:03;;;;;;;4.50;1.38;;;;;;;;;;5112368;28;20040;-81
2023/07/13 05:24:30;;;;;;;6.80;1.50;;;;;;;;;;5112415;28;20550;-82
2023/07/13 05:26:56;;;;;;;9.50;1.98;;;;;;;;;;5112168;28;20056;-81
2023/07/13 05:29:22;;;;;;;9.88;2.08;;;;;;;;;;5112727;28;20036;-81
2023/07/13 05:31:49;;;;;;;7.85;1.73;;;;;;;;;;5112903;28;20427;-80
2023/07/13 05:34:15;;;;;;;9.45;1.80;;;;;;;;;;5112769;28;20524;-81
2023/07/13 05:36:41;;;;;;;9.02;1.45;;;;;;;;;;5095560;28;20473;-81
2023/07/13 05:39:08;;;;;;;5.50;1.83;;;;;;;;;;5095632;28;20439;-81
2023/07/13 05:41:34;;;;;;;8.40;1.88;;;;;;;;;;5112665;28;20040;-81
2023/07/13 05:44:00;;;;;;;7.03;2.05;;;;;;;;;;5095377;28;20055;-81
2023/07/13 05:46:26;;;;;;;5.13;1.95;;;;;;;;;;5112824;28;20066;-81
2023/07/13 05:48:52;;;;;;;7.07;2.00;;;;;;;;;;5112588;28;20400;-81
2023/07/13 05:51:18;;;;;;;7.70;1.98;;;;;;;;;;5112486;28;20050;-80
2023/07/13 05:53:44;;;;;;;9.48;1.60;;;;;;;;;;5113510;28;20396;-81
2023/07/13 05:56:10;;;;;;;5.72;1.30;;;;;;;;;;5112385;28;20055;-80
2023/07/13 05:58:37;;;;;;;8.30;1.60;;;;;;;;;;5112162;28;20043;-81
2023/07/13 06:01:08;;;;;;;7.47;2.08;;;;;;;;;;5112362;28;20051;-81
2023/07/13 06:03:34;;;;;;;7.88;1.67;;;;;;;;;;5095547;28;20065;-81
2023/07/13 06:06:00;;;;;;;8.55;1.90;;;;;;;;;;5096093;28;20130;-80
2023/07/13 06:08:26;;;;;;;6.53;1.67;;;;;;;;;;5095476;28;20453;-81
2023/07/13 06:10:52;;;;;;;6.38;1.67;;;;;;;;;;5112356;28;20052;-80
2023/07/13 06:13:19;;;;;;;8.13;1.73;;;;;;;;;;5116864;28;20386;-81
2023/07/13 06:15:54;;;;;;;5.28;1.98;;;;;;;;;;5099216;28;20040;-81
2023/07/13 06:18:20;;;;;;;5.00;1.92;;;;;;;;;;5116617;28;20044;-81
2023/07/13 06:20:46;;;;;;;6.38;1.60;;;;;;;;;;5115730;28;20086;-81
2023/07/13 06:23:12;;;;;;;5.18;1.50;;;;;;;;;;5116480;28;20051;-80
2023/07/13 06:25:38;;;;;;;6.88;1.80;;;;;;;;;;5117464;28;20051;-81
2023/07/13 06:28:04;;;;;;;7.13;1.48;;;;;;;;;;5115283;28;20059;-80
2023/07/13 06:30:31;;;;;;;8.52;1.90;;;;;;;;;;5098640;28;20046;-81
2023/07/13 06:32:57;;;;;;;5.70;1.92;;;;;;;;;;5098764;28;20514;-81
2023/07/13 06:35:23;;;;;;;6.82;1.98;;;;;;;;;;5116518;28;20050;-80
2023/07/13 06:37:49;;;;;;;6.65;1.77;;;;;;;;;;5115717;28;20079;-81
2023/07/13 06:40:17;;;;;;;6.07;1.48;;;;;;;;;;5116953;28;20071;-80
2023/07/13 06:42:43;;;;;;;10.13;2.50;;;;;;;;;;5115204;28;20447;-81
2023/07/13 06:45:09;;;;;;;7.13;1.50;;;;;;;;;;5098247;28;20395;-80
2023/07/13 06:47:35;;;;;;;7.18;1.52;;;;;;;;;;5115217;28;20051;-80
2023/07/13 06:50:01;;;;;;;6.22;1.70;;;;;;;;;;5115533;28;20048;-80
2023/07/13 06:52:27;;;;;;;6.47;1.77;;;;;;;;;;5115663;28;20435;-81
2023/07/13 06:54:54;;;;;;;9.63;1.75;;;;;;;;;;5115785;28;20036;-81
2023/07/13 06:57:20;;;;;;;6.93;1.48;;;;;;;;;;5114788;28;20481;-81
2023/07/13 06:59:46;;;;;;;6.55;2.08;;;;;;;;;;5116215;28;20096;-81
2023/07/13 07:02:12;;;;;;;4.03;1.10;;;;;;;;;;5097903;28;20054;-80
2023/07/13 07:04:38;;;;;;;6.60;1.70;;;;;;;;;;5098207;28;20047;-80
2023/07/13 07:07:04;;;;;;;7.43;1.80;;;;;;;;;;5115163;28;20374;-80
2023/07/13 07:09:31;;;;;;;6.53;1.50;;;;;;;;;;5114628;28;20055;-80
2023/07/13 07:11:57;;;;;;;7.43;1.70;;;;;;;;;;5098034;28;20044;-81
2023/07/13 07:14:23;;;;;;;6.35;1.50;;;;;;;;;;5092355;28;20131;-81
2023/07/13 07:16:50;;;;;;;7.43;2.03;;;;;;;;;;5107648;28;20055;-82
2023/07/13 07:19:16;;;;;;;7.32;1.65;;;;;;;;;;5104652;28;20050;-81
2023/07/13 07:21:43;;;;;;;5.90;1.50;;;;;;;;;;5115603;28;20485;-81
2023/07/13 07:24:09;;;;;;;5.40;1.50;;;;;;;;;;5115044;28;20047;-82
2023/07/13 07:26:35;;;;;;;5.07;1.77;;;;;;;;;;5086529;28;20040;-81
2023/07/13 07:29:01;;;;;;;11.30;2.08;;;;;;;;;;5103411;28;20375;-80
2023/07/13 07:31:27;;;;;;;7.13;1.75;;;;;;;;;;5097627;28;20047;-81
2023/07/13 07:33:53;;;;;;;11.50;2.53;;;;;;;;;;5108773;28;20052;-81
2023/07/13 07:36:19;;;;;;;8.02;2.20;;;;;;;;;;5102384;28;20043;-82
2023/07/13 07:38:45;;;;;;;7.45;1.92;;;;;;;;;;5113394;28;20043;-82
2023/07/13 07:41:12;;;;;;;9.38;2.17;;;;;;;;;;5113244;28;20089;-82
2023/07/13 07:43:38;;;;;;;9.63;2.42;;;;;;;;;;5093298;28;20046;-82
2023/07/13 07:46:04;;;;;;;6.65;2.25;;;;;;;;;;5109180;28;20043;-82
2023/07/13 07:48:30;;;;;;;7.90;2.10;;;;;;;;;;5113104;28;20039;-82
2023/07/13 07:50:56;;;;;;;8.88;2.53;;;;;;;;;;5113348;28;20473;-82
2023/07/13 07:53:23;;;;;;;8.23;2.38;;;;;;;;;;5113208;28;20050;-81
2023/07/13 07:55:49;;;;;;;6.68;1.88;;;;;;;;;;5113275;28;20173;-82
2023/07/13 07:58:15;;;;;;;7.47;2.05;;;;;;;;;;5113296;28;20043;-82
2023/07/13 08:00:41;;;;;;;6.07;2.65;;;;;;;;;;5079646;28;20525;-82
2023/07/13 08:03:07;;;;;;;5.82;1.85;;;;;;;;;;5113078;28;20078;-82
2023/07/13 08:05:35;;;;;;;10.55;2.55;;;;;;;;;;5112929;28;20381;-82
2023/07/13 08:08:02;;;;;;;8.65;2.42;;;;;;;;;;5112268;28;20051;-82
2023/07/13 08:10:28;;;;;;;9.23;2.45;;;;;;;;;;5114177;28;20069;-82
2023/07/13 08:12:54;;;;;;;7.68;2.53;;;;;;;;;;5096084;28;20039;-82
2023/07/13 08:15:20;;;;;;;11.15;2.83;;;;;;;;;;5092552;28;20047;-82
2023/07/13 08:17:47;;;;;;;10.18;2.88;;;;;;;;;;5089577;28;20039;-82
2023/07/13 08:20:14;;;;;;;6.68;3.13;;;;;;;;;;5113042;28;20557;-83
2023/07/13 08:22:40;;;;;;;8.70;3.40;;;;;;;;;;5112601;28;20393;-82
2023/07/13 08:25:06;;;;;;;7.15;2.75;;;;;;;;;;5113773;28;20048;-82
2023/07/13 08:27:33;;;;;;;6.82;2.63;;;;;;;;;;5112691;28;20047;-82
2023/07/13 08:29:59;;;;;;;7.88;2.95;;;;;;;;;;5112215;28;20048;-83
2023/07/13 08:32:25;;;;;;;7.05;2.28;;;;;;;;;;5094898;28;20051;-83
2023/07/13 08:34:52;;;;;;;8.82;3.05;;;;;;;;;;5111824;28;20039;-82
2023/07/13 08:37:18;;;;;;;6.65;3.22;;;;;;;;;;5111767;28;20035;-84
2023/07/13 08:39:44;;;;;;;7.68;3.47;;;;;;;;;;5112490;28;20051;-83
2023/07/13 08:42:13;;;;;;;7.05;2.85;;;;;;;;;;5111715;28;20050;-83
2023/07/13 08:44:52;;;;;;;6.78;3.03;;;;;;;;;;5094985;28;20044;-83
2023/07/13 08:47:20;;;;;;;10.35;3.10;;;;;;;;;;5111661;28;20050;-82
2023/07/13 08:49:46;;;;;;;6.07;3.10;;;;;;;;;;5112478;28;20048;-82
2023/07/13 08:52:39;;;;;;;9.02;3.83;;;;;;;;;;5092851;28;20047;-83
2023/07/13 08:55:25;;;;;;;7.25;2.80;;;;;;;;;;5108554;28;20105;-82
2023/07/13 08:58:11;;;;;;;6.85;2.85;;;;;;;;;;5109461;28;20409;-82
2023/07/13 09:01:01;;;;;;;9.57;2.85;;;;;;;;;;5096739;28;20070;-83
2023/07/13 09:03:31;;;;;;;5.63;3.20;;;;;;;;;;5101381;28;20055;-82
2023/07/13 09:06:02;;;;;;;8.48;3.60;;;;;;;;;;5111962;28;20051;-82
2023/07/13 09:08:34;;;;;;;7.90;4.00;;;;;;;;;;5093490;28;20051;-83
2023/07/13 09:11:03;;;;;;;9.82;3.75;;;;;;;;;;5110310;28;20400;-83
2023/07/13 09:13:50;;;;;;;6.15;3.63;;;;;;;;;;5102099;28;20048;-82
2023/07/13 09:16:16;;;;;;;7.78;3.80;;;;;;;;;;5095053;28;20086;-82
2023/07/13 09:18:44;;;;;;;8.30;4.20;;;;;;;;;;5110870;28;20126;-83
2023/07/13 09:21:13;;;;;;;6.97;3.35;;;;;;;;;;5103330;28;20044;-82
2023/07/13 09:23:39;;;;;;;7.75;3.72;;;;;;;;;;5092167;28;20044;-82
2023/07/13 09:26:05;;;;;;;4.60;2.22;;;;;;;;;;5110271;28;20341;-83
2023/07/13 09:28:37;;;;;;;2.10;0.40;;;;;;;;;;5112321;28;20054;-83
2023/07/13 09:31:14;;;;;;;1.20;0.20;;;;;;;;;;5092530;28;20376;-83
2023/07/13 09:33:40;;;;;;;1.45;0.30;;;;;;;;;;5088657;28;20044;-82
2023/07/13 09:36:34;;;;;;;7.10;0.30;;;;;;;;;;5112769;28;20043;-79
2023/07/13 09:39:03;;;;;;;2.25;0.20;;;;;;;;;;5109333;28;20048;-79
2023/07/13 09:41:41;;;;;;;0.45;0.20;;;;;;;;;;5113408;28;20035;-78
2023/07/13 09:44:12;;;;;;;1.20;0.20;;;;;;;;;;5113532;28;20043;-79
2023/07/13 09:46:40;;;;;;;1.67;0.25;;;;;;;;;;5113093;28;20516;-79
2023/07/13 09:49:08;;;;;;;1.08;0.30;;;;;;;;;;5117458;28;20079;-81
2023/07/13 09:51:34;;;;;;;0.50;0.40;;;;;;;;;;5117693;28;20538;-82
2023/07/13 09:54:02;;;;;;;0.82;0.20;;;;;;;;;;5116973;28;20043;-85
2023/07/13 09:56:29;;;;;;;0.70;0.40;;;;;;;;;;5100062;28;20044;-84
2023/07/13 09:58:55;;;;;;;0.50;0.28;;;;;;;;;;5116460;28;20036;-85
2023/07/13 10:01:35;;;;;;;1.30;0.30;;;;;;;;;;5116923;28;20057;-84
2023/07/13 10:04:01;;;;;;;0.77;0.20;;;;;;;;;;5117089;28;20118;-85
2023/07/13 10:06:28;;;;;;;0.73;0.38;;;;;;;;;;5117164;28;20052;-83
2023/07/13 10:08:56;;;;;;;0.77;0.30;;;;;;;;;;5116427;28;20055;-83
2023/07/13 10:11:24;;;;;;;0.77;0.38;;;;;;;;;;5112177;28;20043;-82
2023/07/13 10:13:55;;;;;;;0.82;0.20;;;;;;;;;;5111277;28;20043;-82
2023/07/13 10:16:22;;;;;;;1.83;0.30;;;;;;;;;;5097884;28;20120;-81
2023/07/13 10:18:54;;;;;;;0.47;0.30;;;;;;;;;;5117044;28;20040;-81
2023/07/13 10:21:22;;;;;;;0.90;0.38;;;;;;;;;;5115648;28;20051;-80
2023/07/13 10:23:56;;;;;;;0.75;0.40;;;;;;;;;;5114374;28;20047;-81
2023/07/13 10:26:24;;;;;;;1.50;0.77;;;;;;;;;;5115775;28;20043;-80
2023/07/13 10:28:53;;;;;;;1.70;0.80;;;;;;;;;;5115380;28;20027;-81
2023/07/13 10:31:19;;;;;;;1.52;1.02;;;;;;;;;;5115114;28;20039;-80
2023/07/13 10:33:46;;;;;;;2.25;1.63;;;;;;;;;;5116580;28;20079;-79
2023/07/13 10:36:15;;;;;;;2.20;2.00;;;;;;;;;;5112875;28;20067;-80
2023/07/13 10:38:41;;;;;;;4.38;2.50;;;;;;;;;;5115140;28;20546;-80
2023/07/13 10:41:11;;;;;;;3.10;2.83;;;;;;;;;;5111018;28;20047;-80
2023/07/13 10:43:43;;;;;;;4.15;2.65;;;;;;;;;;5109252;28;20465;-80
2023/07/13 10:46:12;;;;;;;4.10;2.40;;;;;;;;;;5107901;28;20031;-81
2023/07/13 10:48:39;;;;;;;3.90;2.35;;;;;;;;;;5115065;28;20035;-80
2023/07/13 10:51:06;;;;;;;3.42;2.03;;;;;;;;;;5114014;28;20470;-80
2023/07/13 10:53:34;;;;;;;4.60;2.60;;;;;;;;;;5106806;28;20100;-80
2023/07/13 10:56:19;;;;;;;2.72;2.50;;;;;;;;;;5115066;28;20047;-81
2023/07/13 10:58:46;;;;;;;4.50;2.15;;;;;;;;;;5108863;28;20122;-80
2023/07/13 11:01:12;;;;;;;5.82;2.95;;;;;;;;;;5115026;28;20046;-80
2023/07/13 11:03:44;;;;;;;2.95;2.65;;;;;;;;;;5114853;28;20164;-80
2023/07/13 11:06:16;;;;;;;5.70;3.30;;;;;;;;;;5114693;28;20046;-81
2023/07/13 11:08:42;;;;;;;5.03;3.08;;;;;;;;;;5113311;28;20074;-81
2023/07/13 11:11:27;;;;;;;4.68;4.18;;;;;;;;;;5097815;28;20138;-80
2023/07/13 11:13:53;;;;;;;4.97;4.47;;;;;;;;;;5115898;28;20049;-79
2023/07/13 11:16:26;;;;;;;5.40;4.80;;;;;;;;;;5114625;28;20044;-80
2023/07/13 11:19:05;;;;;;;5.03;1.88;;;;;;;;;;5115347;28;20074;-82
2023/07/13 11:21:31;;;;;;;5.93;2.35;;;;;;;;;;5113387;28;20039;-79
2023/07/13 11:24:05;;;;;;;2.88;1.73;;;;;;;;;;5114351;28;20378;-77
2023/07/13 11:26:51;;;;;;;3.07;1.50;;;;;;;;;;5097386;28;20123;-77
2023/07/13 11:29:20;;;;;;;3.28;1.40;;;;;;;;;;5115385;28;20289;-78
2023/07/13 11:31:53;;;;;;;3.00;1.05;;;;;;;;;;5112767;28;20051;-80
2023/07/13 11:34:24;;;;;;;3.13;1.35;;;;;;;;;;5115304;28;20119;-81
2023/07/13 11:36:50;;;;;;;1.83;0.95;;;;;;;;;;5114600;28;20084;-84
2023/07/13 11:39:16;;;;;;;3.10;0.75;;;;;;;;;;5115916;28;20039;-84
2023/07/13 11:41:51;;;;;;;1.52;0.82;;;;;;;;;;5109756;28;20049;-85
2023/07/13 11:44:18;;;;;;;1.77;0.63;;;;;;;;;;5097840;28;20040;-84
2023/07/13 11:46:49;;;;;;;1.95;0.60;;;;;;;;;;5114351;28;20035;-84
2023/07/13 11:49:19;;;;;;;0.80;0.55;;;;;;;;;;5116078;28;20438;-83
2023/07/13 11:51:45;;;;;;;1.85;1.15;;;;;;;;;;5076998;28;20051;-82
2023/07/13 11:54:23;;;;;;;2.10;1.00;;;;;;;;;;5095997;28;20043;-83
2023/07/13 11:56:49;;;;;;;2.90;1.73;;;;;;;;;;5113340;28;20075;-82
2023/07/13 11:59:16;;;;;;;2.35;1.60;;;;;;;;;;5097219;28;20043;-82
2023/07/13 12:01:49;;;;;;;2.22;2.00;;;;;;;;;;5115095;28;20036;-81
2023/07/13 12:04:35;;;;;;;2.58;1.70;;;;;;;;;;5096865;28;20075;-81
2023/07/13 12:07:04;;;;;;;2.85;2.28;;;;;;;;;;5112169;28;20073;-80
2023/07/13 12:09:31;;;;;;;4.68;2.40;;;;;;;;;;5089170;28;20051;-80
2023/07/13 12:12:00;;;;;;;2.40;1.88;;;;;;;;;;5104021;28;20058;-80
2023/07/13 12:14:26;;;;;;;1.85;1.70;;;;;;;;;;5100266;28;20051;-80
2023/07/13 12:16:53;;;;;;;3.83;1.90;;;;;;;;;;5099661;28;20055;-81
2023/07/13 12:19:29;;;;;;;2.08;1.75;;;;;;;;;;5094466;28;20047;-80
2023/07/13 12:21:59;;;;;;;2.28;1.83;;;;;;;;;;5110531;28;20043;-79
2023/07/13 12:24:26;;;;;;;2.75;1.73;;;;;;;;;;5109001;28;20091;-82
2023/07/13 12:26:53;;;;;;;2.85;1.63;;;;;;;;;;5113095;28;20035;-82
2023/07/13 12:29:19;;;;;;;4.45;2.33;;;;;;;;;;5110587;28;20050;-82
2023/07/13 12:31:46;;;;;;;3.10;2.42;;;;;;;;;;5087233;28;20128;-82
2023/07/13 12:34:14;;;;;;;3.20;1.65;;;;;;;;;;5108898;28;20131;-82
2023/07/13 12:36:45;;;;;;;3.25;1.67;;;;;;;;;;5114307;28;20062;-81
2023/07/13 12:39:18;;;;;;;4.30;2.05;;;;;;;;;;5113283;28;20054;-82
2023/07/13 12:41:45;;;;;;;2.33;0.90;;;;;;;;;;5096231;28;20039;-81
2023/07/13 12:44:15;;;;;;;2.45;1.10;;;;;;;;;;5096338;28;20051;-82
2023/07/13 12:46:53;;;;;;;2.75;1.08;;;;;;;;;;5112953;28;20044;-81
2023/07/13 12:49:23;;;;;;;2.28;0.90;;;;;;;;;;5112904;28;20075;-81
2023/07/13 12:51:51;;;;;;;4.75;1.60;;;;;;;;;;5113097;28;20492;-81
2023/07/13 12:54:19;;;;;;;4.32;0.90;;;;;;;;;;5114158;28;20059;-81
2023/07/13 12:56:46;;;;;;;2.90;0.68;;;;;;;;;;5113070;28;20050;-81
2023/07/13 12:59:17;;;;;;;2.22;0.70;;;;;;;;;;5112854;28;20051;-81
2023/07/13 13:01:43;;;;;;;3.35;0.90;;;;;;;;;;5096168;28;20444;-81
2023/07/13 13:04:11;;;;;;;2.33;0.65;;;;;;;;;;5096126;28;20040;-81
2023/07/13 13:06:37;;;;;;;1.75;0.52;;;;;;;;;;5113071;28;20052;-82
2023/07/13 13:09:04;;;;;;;3.83;0.70;;;;;;;;;;5112735;28;20087;-81
2023/07/13 13:11:31;;;;;;;4.18;0.70;;;;;;;;;;5113899;28;20047;-81
2023/07/13 13:13:57;;;;;;;2.03;0.30;;;;;;;;;;5112874;28;20040;-81
2023/07/13 13:16:31;;;;;;;2.60;0.32;;;;;;;;;;5112995;28;20065;-81
2023/07/13 13:18:59;;;;;;;1.35;0.30;;;;;;;;;;5095758;28;20093;-81
2023/07/13 13:21:26;;;;;;;1.30;0.40;;;;;;;;;;5113581;28;20502;-81
2023/07/13 13:23:53;;;;;;;4.38;0.40;;;;;;;;;;5100552;28;20044;-82
2023/07/13 13:26:20;;;;;;;1.75;0.30;;;;;;;;;;5117246;28;20043;-81
2023/07/13 13:28:50;;;;;;;1.67;0.30;;;;;;;;;;5099620;28;20150;-81
2023/07/13 13:31:16;;;;;;;1.60;0.40;;;;;;;;;;5117986;28;20193;-82
2023/07/13 13:33:45;;;;;;;1.73;0.40;;;;;;;;;;5116950;28;20504;-81
2023/07/13 13:36:18;;;;;;;2.28;0.50;;;;;;;;;;5099600;28;20044;-81
2023/07/13 13:38:45;;;;;;;1.65;0.40;;;;;;;;;;5099846;28;20044;-81
2023/07/13 13:41:12;;;;;;;2.33;0.40;;;;;;;;;;5116785;28;20126;-81
2023/07/13 13:43:39;;;;;;;1.25;0.45;;;;;;;;;;5117836;28;20135;-81
2023/07/13 13:46:11;;;;;;;0.95;0.30;;;;;;;;;;5099835;28;20043;-82
2023/07/13 13:48:37;;;;;;;3.63;0.40;;;;;;;;;;5117914;28;20118;-82
2023/07/13 13:51:12;;;;;;;2.08;0.30;;;;;;;;;;5116542;28;20058;-81
2023/07/13 13:53:38;;;;;;;3.28;0.30;;;;;;;;;;5116856;28;20082;-80
2023/07/13 13:56:05;;;;;;;1.00;0.30;;;;;;;;;;5117745;27;20076;-82
2023/07/13 13:58:31;;;;;;;1.55;0.40;;;;;;;;;;5099010;28;20047;-81
2023/07/13 14:00:57;;;;;;;2.55;0.35;;;;;;;;;;5116420;28;20157;-81
2023/07/13 14:03:25;;;;;;;1.65;0.40;;;;;;;;;;5099763;28;20074;-80
2023/07/13 14:05:51;;;;;;;2.13;0.30;;;;;;;;;;5116346;28;20050;-80
2023/07/13 14:08:19;;;;;;;1.90;0.35;;;;;;;;;;5116007;28;20093;-80
2023/07/13 14:10:49;;;;;;;1.25;0.30;;;;;;;;;;5117204;28;20397;-80
2023/07/13 14:13:18;;;;;;;1.48;0.30;;;;;;;;;;5117210;28;20065;-81
2023/07/13 14:15:45;;;;;;;2.63;0.40;;;;;;;;;;5116153;28;20108;-81
2023/07/13 14:18:11;;;;;;;1.30;0.30;;;;;;;;;;5116073;28;20058;-81
2023/07/13 14:20:37;;;;;;;1.40;0.30;;;;;;;;;;5116194;28;20443;-81
2023/07/13 14:23:04;;;;;;;2.70;0.30;;;;;;;;;;5115842;28;20043;-81
2023/07/13 14:25:30;;;;;;;3.13;0.30;;;;;;;;;;5116812;28;20048;-81
2023/07/13 14:28:07;;;;;;;1.77;0.30;;;;;;;;;;5115315;28;20052;-81
2023/07/13 14:30:33;;;;;;;1.40;0.30;;;;;;;;;;5115615;28;20058;-81
2023/07/13 14:32:59;;;;;;;1.38;0.20;;;;;;;;;;5114264;28;20079;-80
2023/07/13 14:35:26;;;;;;;0.85;0.30;;;;;;;;;;5116641;28;20051;-81
2023/07/13 14:37:52;;;;;;;2.35;0.32;;;;;;;;;;5116504;28;20040;-81
2023/07/13 14:40:23;;;;;;;1.27;0.30;;;;;;;;;;5115514;28;20096;-80
2023/07/13 14:42:50;;;;;;;1.70;0.20;;;;;;;;;;5115463;28;20039;-81
2023/07/13 14:45:17;;;;;;;1.60;0.40;;;;;;;;;;5116845;28;20047;-81
2023/07/13 14:47:43;;;;;;;0.80;0.20;;;;;;;;;;5116308;28;20072;-81